Briefing drone pour Villemoustaussou

Rechercher une autre localisation

Conditions de vol :


Nous sommes le : Mercredi 24 février 2021
Il est 20:33 UTC (21:33 LT)

Lever de soleil : 06:07 UTC (07:07 LT)
Coucher de soleil : 17:59 UTC (18:59 LT)

Météo

L'essentiel des conditions de vol

VIGILANCE MÉTÉO FRANCE - Aude (11)
Pas de vigilances particulieres
METAR de LFMK
LFMK 242000Z AUTO 09016KT 9999 OVC014 12/09 Q1030

Date d'émission: 24/02/2021
Heure d'émission: 20:00 UTC
Vent: 090° pour 16 KT (30 km/h)
Visibilité horizontale: > 10 km
Plafond :
- Couvert à 1400ft (427m)
Température: 12 °C
Point de rosée: 9 °C
Humidité: 82%
Pression (QNH): 1030 hPa
TAF de LFMK
LFMK 241800Z 2418/2515 CNL

Conditions prévues :

Heure d'émission : Bulletin éffectué le 24 à 18:00 UTC
Prévision : Valide du 24 a 18:00 UTC au 25 a 15:00 UTC
Nuages : à 0ft (0 m)
WEBCAM POUR VILLEMOUSTAUSSOU

Réglementation

Voler en sécurité

CARTES AERONAUTIQUE 1/500.000
CARTES VAC (LFMK)
SUP AIP




Chargement des AIP...
NOTAM (VILLEMOUSTAUSSOU + Terrain à proximité / FIR )




Chargement des NOTAMS...
CONTACT PREFECTURE 11


Avertissement : Les données mises à disposition sont indicatives. Oxygène Drone ne pourra être tenu responsable de dégâts causés aux biens et aux personnes.